createdAt,value
2018-01-16T00:01:15.042Z,6.30
2018-01-16T00:03:42.509Z,6.40
2018-01-16T00:06:09.965Z,6.40
2018-01-16T00:08:37.437Z,6.40
2018-01-16T00:11:04.913Z,6.30
2018-01-16T00:13:33.154Z,6.30
2018-01-16T00:16:00.605Z,6.30
2018-01-16T00:18:28.083Z,6.30
2018-01-16T00:20:55.554Z,6.30
2018-01-16T00:23:23.797Z,6.40
2018-01-16T00:25:51.370Z,6.30
2018-01-16T00:28:18.845Z,6.40
2018-01-16T00:30:47.069Z,6.30
2018-01-16T00:33:14.550Z,6.30
2018-01-16T00:35:43.517Z,6.30
2018-01-16T00:38:10.973Z,6.30
2018-01-16T00:40:38.523Z,6.30
2018-01-16T00:43:05.986Z,6.30
2018-01-16T00:45:33.466Z,6.30
2018-01-16T00:48:00.949Z,6.30
2018-01-16T00:50:28.415Z,6.20
2018-01-16T00:52:56.662Z,6.30
2018-01-16T00:55:24.142Z,6.30
2018-01-16T00:57:52.366Z,6.20
2018-01-16T01:00:19.822Z,6.10
2018-01-16T01:02:47.298Z,6.10
2018-01-16T01:05:14.753Z,6.00
2018-01-16T01:07:42.230Z,6.00
2018-01-16T01:10:09.717Z,6.10
2018-01-16T01:12:37.184Z,6.10
2018-01-16T01:15:04.652Z,6.10
2018-01-16T01:17:32.110Z,6.20
2018-01-16T01:19:59.590Z,6.20
2018-01-16T01:22:27.053Z,6.20
2018-01-16T01:24:54.579Z,6.20
2018-01-16T01:27:22.022Z,6.20
2018-01-16T01:29:49.506Z,6.30
2018-01-16T01:32:16.993Z,6.30
2018-01-16T01:34:44.454Z,6.30
2018-01-16T01:37:11.933Z,6.30
2018-01-16T01:39:39.399Z,6.20
2018-01-16T01:42:06.879Z,6.20
2018-01-16T01:44:34.357Z,6.10
2018-01-16T01:47:01.821Z,6.20
2018-01-16T01:49:29.302Z,6.10
2018-01-16T01:51:57.521Z,6.20
2018-01-16T01:54:24.977Z,6.10
2018-01-16T01:56:52.446Z,6.20
2018-01-16T01:59:19.905Z,6.20
2018-01-16T02:01:47.373Z,6.30
2018-01-16T02:04:14.858Z,6.30
2018-01-16T02:06:42.306Z,6.20
2018-01-16T02:09:09.853Z,6.20
2018-01-16T02:11:37.333Z,6.20
2018-01-16T02:14:05.558Z,6.20
2018-01-16T02:16:33.022Z,6.20
2018-01-16T02:19:00.491Z,6.20
2018-01-16T02:21:27.942Z,6.20
2018-01-16T02:23:55.420Z,6.30
2018-01-16T02:26:22.882Z,6.30
2018-01-16T02:28:50.354Z,6.40
2018-01-16T02:31:18.599Z,6.40
2018-01-16T02:33:46.834Z,6.40
2018-01-16T02:36:14.318Z,6.40
2018-01-16T02:38:41.785Z,6.40
2018-01-16T02:41:10.745Z,6.30
2018-01-16T02:43:38.233Z,6.30
2018-01-16T02:46:05.713Z,6.40
2018-01-16T02:48:37.421Z,6.30
2018-01-16T02:51:04.881Z,6.30
2018-01-16T02:53:32.377Z,6.40
2018-01-16T02:56:00.622Z,6.40
2018-01-16T02:58:28.082Z,6.30
2018-01-16T03:00:55.562Z,6.30
2018-01-16T03:03:23.013Z,6.30
2018-01-16T03:05:50.481Z,6.40
2018-01-16T03:08:18.728Z,6.50
2018-01-16T03:10:46.198Z,6.50
2018-01-16T03:13:13.670Z,6.50
2018-01-16T03:15:41.893Z,6.50
2018-01-16T03:18:09.368Z,6.50
2018-01-16T03:20:36.837Z,6.50
2018-01-16T03:23:04.316Z,6.50
2018-01-16T03:25:31.756Z,6.50
2018-01-16T03:27:59.243Z,6.50
2018-01-16T03:30:27.462Z,6.40
2018-01-16T03:32:54.948Z,6.40
2018-01-16T03:35:22.394Z,6.30
2018-01-16T03:37:50.645Z,6.20
2018-01-16T03:40:18.098Z,6.20
2018-01-16T03:42:45.557Z,6.10
2018-01-16T03:45:13.028Z,6.00
2018-01-16T03:47:40.489Z,6.10
2018-01-16T03:50:08.019Z,6.10
2018-01-16T03:52:35.513Z,6.10
2018-01-16T03:55:03.757Z,6.10
2018-01-16T03:57:31.241Z,6.10
2018-01-16T03:59:58.734Z,6.10
2018-01-16T04:02:26.213Z,6.10
2018-01-16T04:04:53.733Z,6.20
2018-01-16T04:07:21.165Z,6.10
2018-01-16T04:09:48.630Z,6.00
2018-01-16T04:12:16.093Z,6.10
2018-01-16T04:14:43.553Z,6.10
2018-01-16T04:17:11.026Z,6.10
2018-01-16T04:19:39.262Z,6.10
2018-01-16T04:22:06.727Z,6.10
2018-01-16T04:24:34.193Z,6.10
2018-01-16T04:27:01.665Z,6.10
2018-01-16T04:29:29.902Z,6.20
2018-01-16T04:31:57.378Z,6.20
2018-01-16T04:34:24.933Z,6.10
2018-01-16T04:36:52.394Z,6.10
2018-01-16T04:39:20.637Z,6.10
2018-01-16T04:41:48.124Z,6.10
2018-01-16T04:44:15.581Z,6.10
2018-01-16T04:46:43.826Z,6.10
2018-01-16T04:49:11.363Z,6.10
2018-01-16T04:51:38.809Z,6.10
2018-01-16T04:54:06.285Z,6.10
2018-01-16T04:56:33.757Z,6.10
2018-01-16T04:59:01.221Z,6.10
2018-01-16T05:01:28.681Z,6.10
2018-01-16T05:03:56.935Z,6.20
2018-01-16T05:06:24.385Z,6.20
2018-01-16T05:08:51.857Z,6.20
2018-01-16T05:11:19.333Z,6.30
2018-01-16T05:13:46.805Z,6.30
2018-01-16T05:16:15.042Z,6.30
2018-01-16T05:18:42.493Z,6.30
2018-01-16T05:21:09.966Z,6.30
2018-01-16T05:23:37.427Z,6.20
2018-01-16T05:26:05.005Z,6.20
2018-01-16T05:28:33.274Z,6.20
2018-01-16T05:31:01.505Z,6.20
2018-01-16T05:33:28.977Z,6.20
2018-01-16T05:35:56.514Z,6.20
2018-01-16T05:38:23.978Z,6.20
2018-01-16T05:40:51.451Z,6.20
2018-01-16T05:43:18.909Z,6.30
2018-01-16T05:45:46.386Z,6.20
2018-01-16T05:48:14.614Z,6.30
2018-01-16T05:50:42.086Z,6.30
2018-01-16T05:53:09.550Z,6.40
2018-01-16T05:55:37.013Z,6.40
2018-01-16T05:58:05.262Z,6.30
2018-01-16T06:00:32.713Z,6.30
2018-01-16T06:03:00.194Z,6.30
2018-01-16T06:05:27.666Z,6.30
2018-01-16T06:07:55.141Z,6.20
2018-01-16T06:10:23.369Z,6.10
2018-01-16T06:12:51.026Z,6.10
2018-01-16T06:15:18.506Z,6.10
2018-01-16T06:17:45.974Z,6.20
2018-01-16T06:20:13.431Z,6.20
2018-01-16T06:22:40.993Z,6.20
2018-01-16T06:25:08.461Z,6.20
2018-01-16T06:27:36.690Z,6.30
2018-01-16T06:30:04.154Z,6.30
2018-01-16T06:32:31.629Z,6.20
2018-01-16T06:34:59.082Z,6.30
2018-01-16T06:37:26.549Z,6.30
2018-01-16T06:39:54.035Z,6.30
2018-01-16T06:42:22.242Z,6.30
2018-01-16T06:44:49.698Z,6.30
2018-01-16T06:47:17.170Z,6.30
2018-01-16T06:49:44.642Z,6.30
2018-01-16T06:52:12.209Z,6.30
2018-01-16T06:54:41.148Z,6.40
2018-01-16T06:57:08.649Z,6.30
2018-01-16T06:59:36.117Z,6.30
2018-01-16T07:02:04.374Z,6.30
2018-01-16T07:04:31.825Z,6.30
2018-01-16T07:06:59.302Z,6.40
2018-01-16T07:09:26.838Z,6.40
2018-01-16T07:11:54.294Z,6.50
2018-01-16T07:14:21.769Z,6.40
2018-01-16T07:16:49.233Z,6.50
2018-01-16T07:19:16.713Z,6.50
2018-01-16T07:21:44.938Z,6.60
2018-01-16T07:24:12.394Z,6.60
2018-01-16T07:26:39.870Z,6.60
2018-01-16T07:29:07.330Z,6.70
2018-01-16T07:31:34.826Z,6.60
2018-01-16T07:34:02.298Z,6.60
2018-01-16T07:36:29.790Z,6.50
2018-01-16T07:38:57.238Z,6.50
2018-01-16T07:41:24.703Z,6.30
2018-01-16T07:43:53.693Z,6.40
2018-01-16T07:46:21.153Z,6.40
2018-01-16T07:48:48.606Z,6.50
2018-01-16T07:51:16.102Z,6.60
2018-01-16T07:53:43.566Z,6.60
2018-01-16T07:56:11.046Z,6.70
2018-01-16T07:58:38.513Z,6.70
2018-01-16T08:01:05.969Z,6.70
2018-01-16T08:03:33.444Z,6.70
2018-01-16T08:06:02.427Z,6.50
2018-01-16T08:08:29.901Z,6.50
2018-01-16T08:10:57.345Z,6.50
2018-01-16T08:13:24.813Z,6.50
2018-01-16T08:15:52.277Z,6.50
2018-01-16T08:18:19.745Z,6.60
2018-01-16T08:20:47.983Z,6.70
2018-01-16T08:23:15.451Z,6.70
2018-01-16T08:25:42.928Z,6.70
2018-01-16T08:28:11.146Z,6.80
2018-01-16T08:30:38.617Z,6.80
2018-01-16T08:33:06.085Z,7.20
2018-01-16T08:35:33.574Z,7.20
2018-01-16T08:38:01.022Z,7.00
2018-01-16T08:40:28.500Z,6.90
2018-01-16T08:42:56.730Z,7.20
2018-01-16T08:45:24.194Z,7.20
2018-01-16T08:47:51.673Z,7.30
2018-01-16T08:50:19.125Z,7.40
2018-01-16T08:52:46.581Z,7.40
2018-01-16T08:55:14.126Z,7.30
2018-01-16T08:57:41.605Z,7.10
2018-01-16T09:00:09.841Z,6.70
2018-01-16T09:02:37.310Z,6.60
2018-01-16T09:05:04.777Z,6.40
2018-01-16T09:07:33.739Z,6.10
2018-01-16T09:10:01.219Z,6.10
2018-01-16T09:12:28.686Z,5.80
2018-01-16T09:14:56.158Z,5.50
2018-01-16T09:17:24.390Z,4.80
2018-01-16T09:19:51.850Z,4.80
2018-01-16T09:22:19.318Z,4.70
2018-01-16T09:24:46.790Z,4.20
2018-01-16T09:27:15.033Z,4.10
2018-01-16T09:29:42.498Z,4.10
2018-01-16T09:32:10.000Z,4.30
2018-01-16T09:34:37.429Z,4.30
2018-01-16T09:37:05.681Z,4.40
2018-01-16T09:39:33.210Z,4.40
2018-01-16T09:42:00.769Z,4.40
2018-01-16T09:44:28.242Z,4.30
2018-01-16T09:46:55.689Z,4.30
2018-01-16T09:49:23.138Z,4.30
2018-01-16T09:51:50.618Z,4.30
2018-01-16T09:54:18.098Z,4.30
2018-01-16T09:56:45.566Z,4.20
2018-01-16T09:59:13.798Z,3.90
2018-01-16T10:01:41.266Z,3.90
2018-01-16T10:04:08.742Z,3.60
2018-01-16T10:06:36.266Z,3.30
2018-01-16T10:09:03.714Z,3.20
2018-01-16T10:11:31.181Z,3.20
2018-01-16T10:13:58.668Z,3.20
2018-01-16T10:16:26.142Z,3.10
2018-01-16T10:18:54.378Z,3.20
2018-01-16T10:21:21.846Z,3.20
2018-01-16T10:23:50.069Z,3.40
2018-01-16T10:26:17.541Z,3.30
2018-01-16T10:28:45.013Z,3.40
2018-01-16T10:31:12.481Z,3.40
2018-01-16T10:33:39.940Z,3.50
2018-01-16T10:36:07.413Z,3.60
2018-01-16T10:38:34.868Z,3.70
2018-01-16T10:41:02.337Z,3.70
2018-01-16T10:43:30.558Z,4.10
2018-01-16T10:45:58.033Z,4.10
2018-01-16T10:48:25.493Z,4.20
2018-01-16T10:50:52.946Z,4.10
2018-01-16T10:53:20.430Z,3.90
2018-01-16T10:55:47.889Z,3.70
2018-01-16T10:58:16.114Z,3.70
2018-01-16T11:00:43.581Z,3.60
2018-01-16T11:03:11.062Z,3.60
2018-01-16T11:05:38.532Z,3.50
2018-01-16T11:08:06.765Z,3.40
2018-01-16T11:10:34.214Z,3.40
2018-01-16T11:13:01.726Z,3.20
2018-01-16T11:15:29.948Z,3.20
2018-01-16T11:17:57.415Z,3.20
2018-01-16T11:20:24.886Z,3.20
2018-01-16T11:22:52.354Z,3.10
2018-01-16T11:25:19.801Z,3.10
2018-01-16T11:27:47.265Z,3.20
2018-01-16T11:30:14.759Z,3.20
2018-01-16T11:32:43.001Z,3.30
2018-01-16T11:35:10.454Z,3.30
2018-01-16T11:37:37.915Z,3.30
2018-01-16T11:40:05.386Z,3.40
2018-01-16T11:42:33.605Z,4.60
2018-01-16T11:45:01.086Z,4.60
2018-01-16T11:47:28.546Z,4.60
2018-01-16T11:49:56.014Z,4.40
2018-01-16T11:52:23.485Z,4.20
2018-01-16T11:54:51.725Z,3.90
2018-01-16T11:57:19.197Z,3.90
2018-01-16T11:59:46.658Z,3.80
2018-01-16T12:02:14.137Z,3.80
2018-01-16T12:04:42.354Z,3.70
2018-01-16T12:07:09.846Z,3.70
2018-01-16T12:09:37.306Z,3.70
2018-01-16T12:12:04.778Z,3.60
2018-01-16T12:14:33.018Z,3.50
2018-01-16T12:17:00.481Z,3.50
2018-01-16T12:19:27.938Z,3.40
2018-01-16T12:21:55.454Z,3.40
2018-01-16T12:24:22.929Z,3.40
2018-01-16T12:26:50.382Z,3.50
2018-01-16T12:29:17.877Z,3.60
2018-01-16T12:31:46.100Z,3.70
2018-01-16T12:34:13.579Z,3.80
2018-01-16T12:36:41.038Z,3.90
2018-01-16T12:39:08.527Z,4.10
2018-01-16T12:41:36.754Z,4.30
2018-01-16T12:44:04.224Z,4.30
2018-01-16T12:46:31.704Z,4.30
2018-01-16T12:48:59.550Z,4.20
2018-01-16T12:51:27.013Z,4.20
2018-01-16T12:53:54.478Z,4.20
2018-01-16T12:56:21.935Z,4.90
2018-01-16T12:58:49.407Z,5.40
2018-01-16T13:01:17.634Z,4.60
2018-01-16T13:03:45.090Z,4.50
2018-01-16T13:06:12.561Z,4.30
2018-01-16T13:08:40.034Z,4.10
2018-01-16T13:11:07.509Z,4.00
2018-01-16T13:13:34.958Z,4.70
2018-01-16T13:16:02.438Z,5.70
2018-01-16T13:18:29.905Z,6.30
2018-01-16T13:20:57.374Z,6.90
2018-01-16T13:23:24.830Z,7.00
2018-01-16T13:25:52.299Z,7.20
2018-01-16T13:28:19.754Z,6.80
2018-01-16T13:30:47.212Z,6.30
2018-01-16T13:33:14.673Z,6.30
2018-01-16T13:35:42.133Z,6.50
2018-01-16T13:38:09.614Z,6.80
2018-01-16T13:40:37.094Z,6.30
2018-01-16T13:43:05.305Z,6.00
2018-01-16T13:45:32.773Z,6.00
2018-01-16T13:48:00.242Z,5.70
2018-01-16T13:50:27.701Z,5.50
2018-01-16T13:52:55.189Z,5.30
2018-01-16T13:55:23.412Z,4.70
2018-01-16T13:57:50.898Z,4.70
2018-01-16T14:00:18.358Z,4.50
2018-01-16T14:02:45.835Z,4.40
2018-01-16T14:05:14.073Z,4.40
2018-01-16T14:07:41.542Z,4.50
2018-01-16T14:10:09.011Z,4.60
2018-01-16T14:12:36.481Z,4.60
2018-01-16T14:15:04.721Z,4.70
2018-01-16T14:17:32.181Z,4.70
2018-01-16T14:19:59.657Z,4.60
2018-01-16T14:22:27.881Z,4.60
2018-01-16T14:24:55.361Z,4.60
2018-01-16T14:27:22.822Z,4.40
2018-01-16T14:29:50.309Z,4.20
2018-01-16T14:32:18.546Z,3.80
2018-01-16T14:34:46.010Z,3.80
2018-01-16T14:37:13.486Z,3.70
2018-01-16T14:39:40.953Z,3.80
2018-01-16T14:42:09.192Z,3.70
2018-01-16T14:44:36.677Z,3.70
2018-01-16T14:47:04.135Z,3.60
2018-01-16T14:49:32.373Z,3.40
2018-01-16T14:51:59.830Z,3.40
2018-01-16T14:54:27.307Z,3.40
2018-01-16T14:56:54.763Z,3.40
2018-01-16T14:59:22.232Z,3.30
2018-01-16T15:01:49.704Z,3.40
2018-01-16T15:04:17.926Z,3.60
2018-01-16T15:06:45.383Z,3.50
2018-01-16T15:09:12.852Z,3.60
2018-01-16T15:11:40.333Z,3.70
2018-01-16T15:14:07.832Z,3.70
2018-01-16T15:16:35.278Z,3.80
2018-01-16T15:19:02.766Z,3.90
2018-01-16T15:21:30.233Z,4.00
2018-01-16T15:23:58.658Z,4.00
2018-01-16T15:26:26.154Z,4.00
2018-01-16T15:28:53.589Z,3.90
2018-01-16T15:31:21.071Z,3.80
2018-01-16T15:33:48.541Z,3.70
2018-01-16T15:36:16.001Z,3.50
2018-01-16T15:38:44.229Z,3.40
2018-01-16T15:41:11.702Z,3.30
2018-01-16T15:43:39.158Z,3.30
2018-01-16T15:46:06.639Z,3.30
2018-01-16T15:48:34.097Z,3.20
2018-01-16T15:51:01.554Z,3.20
2018-01-16T15:53:29.039Z,3.10
2018-01-16T15:55:57.263Z,3.20
2018-01-16T15:58:24.738Z,3.10
2018-01-16T16:00:52.194Z,3.10
2018-01-16T16:03:19.661Z,3.10
2018-01-16T16:05:47.130Z,3.20
2018-01-16T16:08:14.612Z,3.20
2018-01-16T16:10:42.863Z,3.40
2018-01-16T16:13:10.361Z,3.40
2018-01-16T16:15:37.842Z,3.40
2018-01-16T16:18:05.305Z,3.40
2018-01-16T16:20:32.780Z,3.20
2018-01-16T16:23:01.749Z,2.90
2018-01-16T16:25:29.234Z,2.90
2018-01-16T16:27:56.699Z,2.70
2018-01-16T16:30:24.919Z,2.60
2018-01-16T16:32:52.394Z,2.60
2018-01-16T16:35:19.853Z,2.60
2018-01-16T16:37:47.334Z,2.70
2018-01-16T16:40:14.801Z,2.80
2018-01-16T16:42:42.299Z,2.80
2018-01-16T16:45:09.745Z,2.80
2018-01-16T16:47:37.201Z,2.70
2018-01-16T16:50:04.696Z,2.80
2018-01-16T16:52:32.160Z,2.80
2018-01-16T16:54:59.686Z,2.80
2018-01-16T16:57:27.142Z,2.80
2018-01-16T16:59:54.604Z,2.80
2018-01-16T17:02:22.078Z,2.70
2018-01-16T17:04:49.546Z,2.60
2018-01-16T17:07:17.037Z,2.70
2018-01-16T17:09:46.049Z,2.40
2018-01-16T17:12:13.501Z,2.40
2018-01-16T17:14:40.987Z,2.20
2018-01-16T17:17:08.446Z,2.10
2018-01-16T17:19:35.930Z,2.10
2018-01-16T17:22:03.403Z,2.10
2018-01-16T17:24:30.871Z,2.00
2018-01-16T17:26:59.117Z,1.80
2018-01-16T17:29:26.597Z,1.80
2018-01-16T17:31:54.818Z,1.80
2018-01-16T17:34:22.277Z,1.80
2018-01-16T17:36:49.758Z,1.90
2018-01-16T17:39:17.982Z,2.00
2018-01-16T17:41:45.462Z,2.00
2018-01-16T17:44:12.917Z,2.00
2018-01-16T17:46:40.414Z,2.00
2018-01-16T17:49:07.864Z,1.90
2018-01-16T17:51:35.345Z,1.80
2018-01-16T17:54:02.840Z,1.80
2018-01-16T17:56:30.307Z,1.80
2018-01-16T17:58:57.788Z,1.90
2018-01-16T18:01:26.756Z,2.00
2018-01-16T18:03:54.217Z,2.00
2018-01-16T18:06:21.684Z,2.10
2018-01-16T18:08:49.165Z,2.20
2018-01-16T18:11:17.391Z,2.40
2018-01-16T18:13:44.865Z,2.40
2018-01-16T18:16:12.345Z,2.40
2018-01-16T18:18:39.856Z,2.30
2018-01-16T18:21:07.339Z,2.30
2018-01-16T18:23:34.804Z,2.30
2018-01-16T18:26:02.290Z,2.30
2018-01-16T18:28:30.518Z,2.20
2018-01-16T18:30:57.988Z,2.20
2018-01-16T18:33:25.463Z,2.10
2018-01-16T18:35:54.253Z,2.30
2018-01-16T18:38:21.746Z,2.30
2018-01-16T18:40:49.236Z,2.30
2018-01-16T18:43:17.472Z,2.20
2018-01-16T18:45:44.933Z,2.20
2018-01-16T18:48:12.399Z,2.10
2018-01-16T18:50:39.874Z,2.10
2018-01-16T18:53:07.335Z,2.00
2018-01-16T18:55:34.798Z,2.00
2018-01-16T18:58:02.286Z,2.00
2018-01-16T19:00:30.518Z,1.90
2018-01-16T19:02:57.996Z,1.90
2018-01-16T19:05:25.473Z,1.90
2018-01-16T19:07:53.702Z,1.90
2018-01-16T19:10:21.190Z,1.90
2018-01-16T19:12:48.665Z,2.00
2018-01-16T19:15:16.910Z,2.10
2018-01-16T19:17:44.377Z,2.10
2018-01-16T19:20:12.619Z,2.10
2018-01-16T19:22:40.900Z,2.10
2018-01-16T19:25:08.382Z,2.10
2018-01-16T19:27:35.833Z,2.10
2018-01-16T19:30:03.382Z,2.10
2018-01-16T19:32:30.866Z,2.00
2018-01-16T19:34:59.122Z,2.00
2018-01-16T19:37:26.609Z,1.90
2018-01-16T19:39:54.963Z,1.90
2018-01-16T19:42:22.450Z,2.00
2018-01-16T19:44:50.032Z,2.10
2018-01-16T19:47:17.571Z,2.20
2018-01-16T19:49:45.789Z,2.20
2018-01-16T19:52:13.281Z,2.20
2018-01-16T19:54:41.319Z,2.10
2018-01-16T19:57:09.258Z,2.20
2018-01-16T19:59:36.747Z,2.20
2018-01-16T20:02:04.237Z,2.20
2018-01-16T20:04:32.453Z,2.20
2018-01-16T20:06:59.938Z,2.20
2018-01-16T20:09:27.418Z,2.10
2018-01-16T20:11:54.890Z,2.20
2018-01-16T20:14:23.175Z,2.30
2018-01-16T20:16:51.390Z,2.40
2018-01-16T20:19:18.859Z,2.30
2018-01-16T20:21:46.322Z,2.30
2018-01-16T20:24:13.802Z,2.30
2018-01-16T20:26:42.046Z,2.50
2018-01-16T20:29:09.577Z,2.40
2018-01-16T20:31:37.950Z,2.50
2018-01-16T20:34:05.420Z,2.50
2018-01-16T20:36:32.901Z,2.60
2018-01-16T20:39:00.370Z,2.70
2018-01-16T20:41:27.849Z,2.70
2018-01-16T20:43:56.065Z,2.90
2018-01-16T20:46:23.518Z,2.90
2018-01-16T20:48:50.991Z,3.00
2018-01-16T20:51:18.457Z,2.90
2018-01-16T20:53:45.922Z,3.00
2018-01-16T20:56:13.398Z,3.00
2018-01-16T20:58:41.646Z,2.90
2018-01-16T21:01:09.913Z,2.90
2018-01-16T21:03:37.382Z,2.90
2018-01-16T21:06:04.850Z,2.80
2018-01-16T21:08:33.096Z,2.80
2018-01-16T21:11:00.585Z,2.80
2018-01-16T21:13:29.103Z,2.80
2018-01-16T21:15:56.621Z,2.80
2018-01-16T21:18:24.885Z,2.80
2018-01-16T21:20:52.343Z,2.70
2018-01-16T21:23:20.590Z,2.80
2018-01-16T21:25:48.077Z,2.80
2018-01-16T21:28:16.341Z,2.80
2018-01-16T21:30:43.845Z,2.80
2018-01-16T21:33:11.299Z,2.80
2018-01-16T21:35:39.434Z,3.00
2018-01-16T21:38:06.907Z,3.00
2018-01-16T21:40:35.149Z,3.00
2018-01-16T21:43:02.629Z,3.00
2018-01-16T21:45:30.102Z,3.10
2018-01-16T21:47:58.343Z,3.20
2018-01-16T21:50:25.806Z,3.20
2018-01-16T21:52:54.050Z,3.10
2018-01-16T21:55:21.508Z,3.20
2018-01-16T21:57:48.988Z,3.10
2018-01-16T22:00:16.446Z,3.10
2018-01-16T22:02:44.694Z,3.00
2018-01-16T22:05:12.195Z,3.00
2018-01-16T22:07:39.696Z,3.10
2018-01-16T22:10:07.158Z,3.10
2018-01-16T22:12:34.625Z,3.20
2018-01-16T22:15:02.116Z,3.20
2018-01-16T22:17:29.665Z,3.30
2018-01-16T22:19:57.181Z,3.30
2018-01-16T22:22:24.640Z,3.40
2018-01-16T22:24:52.113Z,3.40
2018-01-16T22:27:19.589Z,3.50
2018-01-16T22:29:48.570Z,3.40
2018-01-16T22:32:16.030Z,3.50
2018-01-16T22:34:43.514Z,3.40
2018-01-16T22:37:11.737Z,3.40
2018-01-16T22:39:39.217Z,3.40
2018-01-16T22:42:06.688Z,3.40
2018-01-16T22:44:34.134Z,3.50
2018-01-16T22:47:01.661Z,3.50
2018-01-16T22:49:29.125Z,3.60
2018-01-16T22:51:56.606Z,3.70
2018-01-16T22:54:24.088Z,3.60
2018-01-16T22:56:52.339Z,3.60
2018-01-16T22:59:19.819Z,3.60
2018-01-16T23:01:48.045Z,3.70
2018-01-16T23:04:15.526Z,3.70
2018-01-16T23:06:43.054Z,3.70
2018-01-16T23:09:10.519Z,3.80
2018-01-16T23:11:37.978Z,3.90
2018-01-16T23:14:05.445Z,4.10
2018-01-16T23:16:32.905Z,4.00
2018-01-16T23:19:00.844Z,3.90
2018-01-16T23:21:28.295Z,3.80
2018-01-16T23:23:55.754Z,3.70
2018-01-16T23:26:23.230Z,3.70
2018-01-16T23:28:50.683Z,3.60
2018-01-16T23:31:18.132Z,3.60
2018-01-16T23:33:45.620Z,3.60
2018-01-16T23:36:13.077Z,3.60
2018-01-16T23:38:40.545Z,3.60
2018-01-16T23:41:08.789Z,3.70
2018-01-16T23:43:36.245Z,3.70
2018-01-16T23:46:03.729Z,3.60
2018-01-16T23:48:31.190Z,3.70
2018-01-16T23:50:59.438Z,3.60
2018-01-16T23:53:26.891Z,3.60
2018-01-16T23:55:54.375Z,3.70
2018-01-16T23:58:21.838Z,3.70
